sensor_id;sensor_type;location;lat;lon;timestamp;P1;durP1;ratioP1;P2;durP2;ratioP2
15655;SDS011;7928;43.614;1.456;2023-05-16T00:01:16;5.53;;;2.97;;
15655;SDS011;7928;43.614;1.456;2023-05-16T00:03:43;5.23;;;2.80;;
15655;SDS011;7928;43.614;1.456;2023-05-16T00:06:12;4.13;;;2.70;;
15655;SDS011;7928;43.614;1.456;2023-05-16T00:08:39;4.93;;;2.70;;
15655;SDS011;7928;43.614;1.456;2023-05-16T00:11:06;6.70;;;3.07;;
15655;SDS011;7928;43.614;1.456;2023-05-16T00:13:33;8.17;;;3.03;;
15655;SDS011;7928;43.614;1.456;2023-05-16T00:16:00;7.20;;;3.40;;
15655;SDS011;7928;43.614;1.456;2023-05-16T00:18:29;6.20;;;3.10;;
15655;SDS011;7928;43.614;1.456;2023-05-16T00:20:55;6.37;;;3.40;;
15655;SDS011;7928;43.614;1.456;2023-05-16T00:23:25;8.57;;;2.97;;
15655;SDS011;7928;43.614;1.456;2023-05-16T00:25:52;6.30;;;2.90;;
15655;SDS011;7928;43.614;1.456;2023-05-16T00:28:19;5.33;;;3.13;;
15655;SDS011;7928;43.614;1.456;2023-05-16T00:30:45;6.73;;;2.60;;
15655;SDS011;7928;43.614;1.456;2023-05-16T00:33:13;5.60;;;2.83;;
15655;SDS011;7928;43.614;1.456;2023-05-16T00:35:40;4.97;;;3.17;;
15655;SDS011;7928;43.614;1.456;2023-05-16T00:38:07;6.53;;;3.37;;
15655;SDS011;7928;43.614;1.456;2023-05-16T00:40:36;5.67;;;3.07;;
15655;SDS011;7928;43.614;1.456;2023-05-16T00:43:03;6.83;;;3.30;;
15655;SDS011;7928;43.614;1.456;2023-05-16T00:45:30;7.60;;;2.90;;
15655;SDS011;7928;43.614;1.456;2023-05-16T00:47:57;6.77;;;2.63;;
15655;SDS011;7928;43.614;1.456;2023-05-16T00:50:24;5.27;;;2.67;;
15655;SDS011;7928;43.614;1.456;2023-05-16T00:52:51;4.33;;;2.93;;
15655;SDS011;7928;43.614;1.456;2023-05-16T00:55:18;9.17;;;3.23;;
15655;SDS011;7928;43.614;1.456;2023-05-16T00:57:46;6.27;;;3.07;;
15655;SDS011;7928;43.614;1.456;2023-05-16T01:00:13;6.77;;;3.10;;
15655;SDS011;7928;43.614;1.456;2023-05-16T01:02:41;7.17;;;2.90;;
15655;SDS011;7928;43.614;1.456;2023-05-16T01:05:09;6.87;;;3.70;;
15655;SDS011;7928;43.614;1.456;2023-05-16T01:07:36;6.37;;;3.60;;
15655;SDS011;7928;43.614;1.456;2023-05-16T01:10:04;7.67;;;3.40;;
15655;SDS011;7928;43.614;1.456;2023-05-16T01:12:35;5.67;;;3.13;;
15655;SDS011;7928;43.614;1.456;2023-05-16T01:15:08;7.77;;;3.03;;
15655;SDS011;7928;43.614;1.456;2023-05-16T01:17:44;9.00;;;4.30;;
15655;SDS011;7928;43.614;1.456;2023-05-16T01:20:21;5.43;;;3.40;;
15655;SDS011;7928;43.614;1.456;2023-05-16T01:23:06;5.50;;;3.73;;
15655;SDS011;7928;43.614;1.456;2023-05-16T01:25:47;7.07;;;3.77;;
15655;SDS011;7928;43.614;1.456;2023-05-16T01:28:23;4.23;;;3.40;;
15655;SDS011;7928;43.614;1.456;2023-05-16T01:30:52;7.50;;;3.40;;
15655;SDS011;7928;43.614;1.456;2023-05-16T01:33:19;9.13;;;3.70;;
15655;SDS011;7928;43.614;1.456;2023-05-16T01:35:49;7.07;;;3.60;;
15655;SDS011;7928;43.614;1.456;2023-05-16T01:38:24;5.50;;;3.50;;
15655;SDS011;7928;43.614;1.456;2023-05-16T01:40:52;10.33;;;3.63;;
15655;SDS011;7928;43.614;1.456;2023-05-16T01:43:28;6.97;;;3.40;;
15655;SDS011;7928;43.614;1.456;2023-05-16T01:46:01;8.60;;;3.60;;
15655;SDS011;7928;43.614;1.456;2023-05-16T01:48:35;6.40;;;3.90;;
15655;SDS011;7928;43.614;1.456;2023-05-16T01:51:08;5.47;;;3.57;;
15655;SDS011;7928;43.614;1.456;2023-05-16T01:53:37;4.80;;;3.10;;
15655;SDS011;7928;43.614;1.456;2023-05-16T01:56:07;4.27;;;3.27;;
15655;SDS011;7928;43.614;1.456;2023-05-16T01:58:37;8.43;;;3.83;;
15655;SDS011;7928;43.614;1.456;2023-05-16T02:01:05;6.27;;;3.30;;
15655;SDS011;7928;43.614;1.456;2023-05-16T02:03:33;7.10;;;3.60;;
15655;SDS011;7928;43.614;1.456;2023-05-16T02:06:00;6.33;;;3.43;;
15655;SDS011;7928;43.614;1.456;2023-05-16T02:08:27;7.50;;;4.27;;
15655;SDS011;7928;43.614;1.456;2023-05-16T02:10:54;5.93;;;4.10;;
15655;SDS011;7928;43.614;1.456;2023-05-16T02:13:21;7.10;;;3.50;;
15655;SDS011;7928;43.614;1.456;2023-05-16T02:15:50;7.10;;;3.57;;
15655;SDS011;7928;43.614;1.456;2023-05-16T02:18:17;5.53;;;3.53;;
15655;SDS011;7928;43.614;1.456;2023-05-16T02:20:44;5.90;;;4.03;;
15655;SDS011;7928;43.614;1.456;2023-05-16T02:23:11;6.80;;;3.40;;
15655;SDS011;7928;43.614;1.456;2023-05-16T02:25:38;6.90;;;3.53;;
15655;SDS011;7928;43.614;1.456;2023-05-16T02:28:05;5.57;;;3.57;;
15655;SDS011;7928;43.614;1.456;2023-05-16T02:30:32;6.27;;;3.43;;
15655;SDS011;7928;43.614;1.456;2023-05-16T02:33:01;8.63;;;4.40;;
15655;SDS011;7928;43.614;1.456;2023-05-16T02:35:28;6.60;;;3.50;;
15655;SDS011;7928;43.614;1.456;2023-05-16T02:37:55;7.40;;;3.73;;
15655;SDS011;7928;43.614;1.456;2023-05-16T02:40:22;7.07;;;3.77;;
15655;SDS011;7928;43.614;1.456;2023-05-16T02:42:49;4.67;;;3.57;;
15655;SDS011;7928;43.614;1.456;2023-05-16T02:45:16;5.50;;;3.20;;
15655;SDS011;7928;43.614;1.456;2023-05-16T02:47:43;4.73;;;3.40;;
15655;SDS011;7928;43.614;1.456;2023-05-16T02:50:11;7.60;;;3.60;;
15655;SDS011;7928;43.614;1.456;2023-05-16T02:52:38;5.07;;;3.37;;
15655;SDS011;7928;43.614;1.456;2023-05-16T02:55:06;4.60;;;3.23;;
15655;SDS011;7928;43.614;1.456;2023-05-16T02:57:33;4.40;;;3.70;;
15655;SDS011;7928;43.614;1.456;2023-05-16T03:00:00;5.33;;;3.87;;
15655;SDS011;7928;43.614;1.456;2023-05-16T03:02:30;4.63;;;3.43;;
15655;SDS011;7928;43.614;1.456;2023-05-16T03:04:57;8.60;;;4.10;;
15655;SDS011;7928;43.614;1.456;2023-05-16T03:07:25;7.10;;;3.73;;
15655;SDS011;7928;43.614;1.456;2023-05-16T03:09:52;6.10;;;3.90;;
15655;SDS011;7928;43.614;1.456;2023-05-16T03:12:19;5.10;;;3.97;;
15655;SDS011;7928;43.614;1.456;2023-05-16T03:14:46;5.30;;;3.70;;
15655;SDS011;7928;43.614;1.456;2023-05-16T03:17:13;6.70;;;3.77;;
15655;SDS011;7928;43.614;1.456;2023-05-16T03:19:40;5.17;;;3.97;;
15655;SDS011;7928;43.614;1.456;2023-05-16T03:22:07;4.47;;;3.50;;
15655;SDS011;7928;43.614;1.456;2023-05-16T03:24:35;5.47;;;4.20;;
15655;SDS011;7928;43.614;1.456;2023-05-16T03:27:02;4.80;;;3.57;;
15655;SDS011;7928;43.614;1.456;2023-05-16T03:29:30;4.40;;;3.40;;
15655;SDS011;7928;43.614;1.456;2023-05-16T03:31:57;5.20;;;3.07;;
15655;SDS011;7928;43.614;1.456;2023-05-16T03:34:23;4.00;;;3.50;;
15655;SDS011;7928;43.614;1.456;2023-05-16T03:36:51;3.93;;;3.03;;
15655;SDS011;7928;43.614;1.456;2023-05-16T03:39:18;3.90;;;2.83;;
15655;SDS011;7928;43.614;1.456;2023-05-16T03:41:46;4.53;;;2.90;;
15655;SDS011;7928;43.614;1.456;2023-05-16T03:44:13;3.37;;;3.07;;
15655;SDS011;7928;43.614;1.456;2023-05-16T03:46:40;4.60;;;2.90;;
15655;SDS011;7928;43.614;1.456;2023-05-16T03:49:07;5.50;;;2.90;;
15655;SDS011;7928;43.614;1.456;2023-05-16T03:51:35;4.87;;;2.70;;
15655;SDS011;7928;43.614;1.456;2023-05-16T03:54:02;3.10;;;2.70;;
15655;SDS011;7928;43.614;1.456;2023-05-16T03:56:29;5.07;;;2.93;;
15655;SDS011;7928;43.614;1.456;2023-05-16T03:58:57;4.40;;;2.73;;
15655;SDS011;7928;43.614;1.456;2023-05-16T04:01:24;4.63;;;2.97;;
15655;SDS011;7928;43.614;1.456;2023-05-16T04:03:52;3.63;;;2.70;;
15655;SDS011;7928;43.614;1.456;2023-05-16T04:06:19;4.90;;;3.23;;
15655;SDS011;7928;43.614;1.456;2023-05-16T04:08:46;4.60;;;3.03;;
15655;SDS011;7928;43.614;1.456;2023-05-16T04:11:13;3.73;;;2.50;;
15655;SDS011;7928;43.614;1.456;2023-05-16T04:13:40;3.87;;;2.37;;
15655;SDS011;7928;43.614;1.456;2023-05-16T04:16:08;4.60;;;2.83;;
15655;SDS011;7928;43.614;1.456;2023-05-16T04:18:35;2.87;;;2.37;;
15655;SDS011;7928;43.614;1.456;2023-05-16T04:21:02;9.53;;;2.80;;
15655;SDS011;7928;43.614;1.456;2023-05-16T04:23:30;5.23;;;2.33;;
15655;SDS011;7928;43.614;1.456;2023-05-16T04:25:57;4.00;;;2.70;;
15655;SDS011;7928;43.614;1.456;2023-05-16T04:28:25;3.97;;;2.70;;
15655;SDS011;7928;43.614;1.456;2023-05-16T04:30:52;3.50;;;2.70;;
15655;SDS011;7928;43.614;1.456;2023-05-16T04:33:20;3.83;;;2.67;;
15655;SDS011;7928;43.614;1.456;2023-05-16T04:35:47;3.83;;;3.07;;
15655;SDS011;7928;43.614;1.456;2023-05-16T04:38:15;4.10;;;2.80;;
15655;SDS011;7928;43.614;1.456;2023-05-16T04:40:41;3.90;;;2.90;;
15655;SDS011;7928;43.614;1.456;2023-05-16T04:43:08;3.60;;;2.53;;
15655;SDS011;7928;43.614;1.456;2023-05-16T04:45:35;3.27;;;2.80;;
15655;SDS011;7928;43.614;1.456;2023-05-16T04:48:03;3.47;;;2.60;;
15655;SDS011;7928;43.614;1.456;2023-05-16T04:50:31;3.10;;;2.60;;
15655;SDS011;7928;43.614;1.456;2023-05-16T04:52:58;3.50;;;2.73;;
15655;SDS011;7928;43.614;1.456;2023-05-16T04:55:25;2.90;;;2.37;;
15655;SDS011;7928;43.614;1.456;2023-05-16T04:57:52;3.03;;;2.60;;
15655;SDS011;7928;43.614;1.456;2023-05-16T05:00:19;4.83;;;3.37;;
15655;SDS011;7928;43.614;1.456;2023-05-16T05:02:46;2.97;;;2.60;;
15655;SDS011;7928;43.614;1.456;2023-05-16T05:05:14;6.90;;;2.60;;
15655;SDS011;7928;43.614;1.456;2023-05-16T05:07:42;4.40;;;2.30;;
15655;SDS011;7928;43.614;1.456;2023-05-16T05:10:09;2.60;;;2.40;;
15655;SDS011;7928;43.614;1.456;2023-05-16T05:12:36;2.47;;;2.20;;
15655;SDS011;7928;43.614;1.456;2023-05-16T05:15:04;3.47;;;2.57;;
15655;SDS011;7928;43.614;1.456;2023-05-16T05:17:32;6.37;;;2.70;;
15655;SDS011;7928;43.614;1.456;2023-05-16T05:19:59;4.27;;;2.87;;
15655;SDS011;7928;43.614;1.456;2023-05-16T05:22:26;3.33;;;2.80;;
15655;SDS011;7928;43.614;1.456;2023-05-16T05:24:54;3.50;;;2.80;;
15655;SDS011;7928;43.614;1.456;2023-05-16T05:27:21;4.63;;;2.87;;
15655;SDS011;7928;43.614;1.456;2023-05-16T05:29:49;3.00;;;2.70;;
15655;SDS011;7928;43.614;1.456;2023-05-16T05:32:16;4.03;;;2.73;;
15655;SDS011;7928;43.614;1.456;2023-05-16T05:34:43;2.63;;;2.43;;
15655;SDS011;7928;43.614;1.456;2023-05-16T05:37:10;5.93;;;2.80;;
15655;SDS011;7928;43.614;1.456;2023-05-16T05:39:37;2.90;;;2.60;;
15655;SDS011;7928;43.614;1.456;2023-05-16T05:42:05;2.77;;;2.47;;
15655;SDS011;7928;43.614;1.456;2023-05-16T05:44:32;3.30;;;2.83;;
15655;SDS011;7928;43.614;1.456;2023-05-16T05:47:01;2.80;;;2.50;;
15655;SDS011;7928;43.614;1.456;2023-05-16T05:49:29;3.80;;;2.63;;
15655;SDS011;7928;43.614;1.456;2023-05-16T05:51:57;6.40;;;2.90;;
15655;SDS011;7928;43.614;1.456;2023-05-16T05:54:24;3.33;;;2.57;;
15655;SDS011;7928;43.614;1.456;2023-05-16T05:56:51;3.93;;;2.70;;
15655;SDS011;7928;43.614;1.456;2023-05-16T05:59:19;3.80;;;2.67;;
15655;SDS011;7928;43.614;1.456;2023-05-16T06:01:46;3.13;;;2.67;;
15655;SDS011;7928;43.614;1.456;2023-05-16T06:04:16;4.00;;;3.07;;
15655;SDS011;7928;43.614;1.456;2023-05-16T06:06:43;3.00;;;2.70;;
15655;SDS011;7928;43.614;1.456;2023-05-16T06:09:10;3.57;;;2.53;;
15655;SDS011;7928;43.614;1.456;2023-05-16T06:11:37;4.33;;;3.30;;
15655;SDS011;7928;43.614;1.456;2023-05-16T06:14:05;3.23;;;2.93;;
15655;SDS011;7928;43.614;1.456;2023-05-16T06:16:33;3.73;;;2.90;;
15655;SDS011;7928;43.614;1.456;2023-05-16T06:19:00;3.03;;;2.67;;
15655;SDS011;7928;43.614;1.456;2023-05-16T06:21:27;4.13;;;3.43;;
15655;SDS011;7928;43.614;1.456;2023-05-16T06:23:54;6.53;;;3.47;;
15655;SDS011;7928;43.614;1.456;2023-05-16T06:26:21;3.30;;;2.93;;
15655;SDS011;7928;43.614;1.456;2023-05-16T06:28:48;5.63;;;3.30;;
15655;SDS011;7928;43.614;1.456;2023-05-16T06:31:15;4.33;;;2.90;;
15655;SDS011;7928;43.614;1.456;2023-05-16T06:33:44;4.93;;;3.00;;
15655;SDS011;7928;43.614;1.456;2023-05-16T06:36:11;2.77;;;2.53;;
15655;SDS011;7928;43.614;1.456;2023-05-16T06:38:38;2.83;;;2.60;;
15655;SDS011;7928;43.614;1.456;2023-05-16T06:41:05;3.07;;;2.53;;
15655;SDS011;7928;43.614;1.456;2023-05-16T06:43:32;4.33;;;3.03;;
15655;SDS011;7928;43.614;1.456;2023-05-16T06:45:59;4.40;;;2.73;;
15655;SDS011;7928;43.614;1.456;2023-05-16T06:48:27;3.87;;;3.03;;
15655;SDS011;7928;43.614;1.456;2023-05-16T06:50:56;4.33;;;2.80;;
15655;SDS011;7928;43.614;1.456;2023-05-16T06:53:23;3.90;;;3.20;;
15655;SDS011;7928;43.614;1.456;2023-05-16T06:55:50;3.23;;;2.93;;
15655;SDS011;7928;43.614;1.456;2023-05-16T06:58:17;3.93;;;2.87;;
15655;SDS011;7928;43.614;1.456;2023-05-16T07:00:44;5.97;;;5.13;;
15655;SDS011;7928;43.614;1.456;2023-05-16T07:03:11;3.13;;;2.83;;
15655;SDS011;7928;43.614;1.456;2023-05-16T07:05:38;4.83;;;3.33;;
15655;SDS011;7928;43.614;1.456;2023-05-16T07:08:07;3.97;;;2.60;;
15655;SDS011;7928;43.614;1.456;2023-05-16T07:10:34;3.83;;;3.23;;
15655;SDS011;7928;43.614;1.456;2023-05-16T07:13:01;3.47;;;2.83;;
15655;SDS011;7928;43.614;1.456;2023-05-16T07:15:29;3.47;;;3.13;;
15655;SDS011;7928;43.614;1.456;2023-05-16T07:17:56;4.80;;;3.20;;
15655;SDS011;7928;43.614;1.456;2023-05-16T07:20:23;3.37;;;3.07;;
15655;SDS011;7928;43.614;1.456;2023-05-16T07:22:50;3.40;;;3.00;;
15655;SDS011;7928;43.614;1.456;2023-05-16T07:25:18;4.77;;;3.27;;
15655;SDS011;7928;43.614;1.456;2023-05-16T07:27:45;4.47;;;2.80;;
15655;SDS011;7928;43.614;1.456;2023-05-16T07:30:12;2.90;;;2.50;;
15655;SDS011;7928;43.614;1.456;2023-05-16T07:32:40;3.90;;;2.80;;
15655;SDS011;7928;43.614;1.456;2023-05-16T07:35:08;2.60;;;2.40;;
15655;SDS011;7928;43.614;1.456;2023-05-16T07:37:35;4.17;;;3.00;;
15655;SDS011;7928;43.614;1.456;2023-05-16T07:40:02;3.90;;;2.50;;
15655;SDS011;7928;43.614;1.456;2023-05-16T07:42:31;3.17;;;2.17;;
15655;SDS011;7928;43.614;1.456;2023-05-16T07:44:58;2.60;;;2.20;;
15655;SDS011;7928;43.614;1.456;2023-05-16T07:47:26;3.63;;;2.67;;
15655;SDS011;7928;43.614;1.456;2023-05-16T07:49:53;3.20;;;2.87;;
15655;SDS011;7928;43.614;1.456;2023-05-16T07:52:20;3.70;;;2.90;;
15655;SDS011;7928;43.614;1.456;2023-05-16T07:54:47;2.77;;;2.47;;
15655;SDS011;7928;43.614;1.456;2023-05-16T07:57:14;2.97;;;2.40;;
15655;SDS011;7928;43.614;1.456;2023-05-16T07:59:43;3.00;;;2.50;;
15655;SDS011;7928;43.614;1.456;2023-05-16T08:02:11;3.23;;;2.47;;
15655;SDS011;7928;43.614;1.456;2023-05-16T08:04:38;3.37;;;2.60;;
15655;SDS011;7928;43.614;1.456;2023-05-16T08:07:05;3.47;;;2.40;;
15655;SDS011;7928;43.614;1.456;2023-05-16T08:09:31;2.80;;;2.47;;
15655;SDS011;7928;43.614;1.456;2023-05-16T08:11:58;2.70;;;2.23;;
15655;SDS011;7928;43.614;1.456;2023-05-16T08:14:28;2.70;;;2.50;;
15655;SDS011;7928;43.614;1.456;2023-05-16T08:16:57;2.73;;;2.50;;
15655;SDS011;7928;43.614;1.456;2023-05-16T08:19:25;3.37;;;2.40;;
15655;SDS011;7928;43.614;1.456;2023-05-16T08:21:52;3.43;;;2.40;;
15655;SDS011;7928;43.614;1.456;2023-05-16T08:24:19;3.80;;;2.20;;
15655;SDS011;7928;43.614;1.456;2023-05-16T08:26:46;3.07;;;2.50;;
15655;SDS011;7928;43.614;1.456;2023-05-16T08:29:13;4.13;;;2.47;;
15655;SDS011;7928;43.614;1.456;2023-05-16T08:31:40;2.60;;;2.10;;
15655;SDS011;7928;43.614;1.456;2023-05-16T08:34:08;6.30;;;2.50;;
15655;SDS011;7928;43.614;1.456;2023-05-16T08:36:35;2.40;;;2.20;;
15655;SDS011;7928;43.614;1.456;2023-05-16T08:39:03;6.00;;;2.50;;
15655;SDS011;7928;43.614;1.456;2023-05-16T08:41:30;4.07;;;1.93;;
15655;SDS011;7928;43.614;1.456;2023-05-16T08:43:57;3.30;;;1.87;;
15655;SDS011;7928;43.614;1.456;2023-05-16T08:46:24;8.37;;;2.23;;
15655;SDS011;7928;43.614;1.456;2023-05-16T08:48:53;3.50;;;2.13;;
15655;SDS011;7928;43.614;1.456;2023-05-16T08:51:27;2.23;;;1.90;;
15655;SDS011;7928;43.614;1.456;2023-05-16T08:53:59;2.70;;;2.00;;
15655;SDS011;7928;43.614;1.456;2023-05-16T08:56:29;6.37;;;1.70;;
15655;SDS011;7928;43.614;1.456;2023-05-16T08:58:58;2.37;;;2.17;;
15655;SDS011;7928;43.614;1.456;2023-05-16T09:01:25;4.20;;;1.77;;
15655;SDS011;7928;43.614;1.456;2023-05-16T09:03:53;7.77;;;2.10;;
15655;SDS011;7928;43.614;1.456;2023-05-16T09:06:21;2.63;;;2.17;;
15655;SDS011;7928;43.614;1.456;2023-05-16T09:08:50;6.63;;;1.80;;
15655;SDS011;7928;43.614;1.456;2023-05-16T09:11:17;6.90;;;2.20;;
15655;SDS011;7928;43.614;1.456;2023-05-16T09:13:45;2.43;;;1.80;;
15655;SDS011;7928;43.614;1.456;2023-05-16T09:16:13;4.03;;;2.00;;
15655;SDS011;7928;43.614;1.456;2023-05-16T09:18:42;5.80;;;1.73;;
15655;SDS011;7928;43.614;1.456;2023-05-16T09:21:10;3.17;;;1.60;;
15655;SDS011;7928;43.614;1.456;2023-05-16T09:23:41;5.57;;;2.43;;
15655;SDS011;7928;43.614;1.456;2023-05-16T09:26:10;2.97;;;1.63;;
15655;SDS011;7928;43.614;1.456;2023-05-16T09:28:37;7.03;;;1.50;;
15655;SDS011;7928;43.614;1.456;2023-05-16T09:31:18;6.93;;;2.20;;
15655;SDS011;7928;43.614;1.456;2023-05-16T09:33:46;4.97;;;2.10;;
15655;SDS011;7928;43.614;1.456;2023-05-16T09:36:14;3.53;;;1.53;;
15655;SDS011;7928;43.614;1.456;2023-05-16T09:38:41;4.57;;;1.43;;
15655;SDS011;7928;43.614;1.456;2023-05-16T09:41:10;2.20;;;1.60;;
15655;SDS011;7928;43.614;1.456;2023-05-16T09:43:38;8.17;;;2.20;;
15655;SDS011;7928;43.614;1.456;2023-05-16T09:46:05;4.43;;;1.70;;
15655;SDS011;7928;43.614;1.456;2023-05-16T09:48:33;2.37;;;1.50;;
15655;SDS011;7928;43.614;1.456;2023-05-16T09:51:00;4.70;;;1.67;;
15655;SDS011;7928;43.614;1.456;2023-05-16T09:53:30;5.17;;;1.80;;
15655;SDS011;7928;43.614;1.456;2023-05-16T09:56:01;7.33;;;1.60;;
15655;SDS011;7928;43.614;1.456;2023-05-16T09:58:31;5.23;;;1.50;;
15655;SDS011;7928;43.614;1.456;2023-05-16T10:01:00;13.87;;;2.83;;
15655;SDS011;7928;43.614;1.456;2023-05-16T10:03:27;7.60;;;1.60;;
15655;SDS011;7928;43.614;1.456;2023-05-16T10:05:54;1.97;;;1.20;;
15655;SDS011;7928;43.614;1.456;2023-05-16T10:08:22;2.00;;;1.20;;
15655;SDS011;7928;43.614;1.456;2023-05-16T10:10:50;3.50;;;1.43;;
15655;SDS011;7928;43.614;1.456;2023-05-16T10:13:20;4.77;;;1.50;;
15655;SDS011;7928;43.614;1.456;2023-05-16T10:15:49;2.80;;;1.47;;
15655;SDS011;7928;43.614;1.456;2023-05-16T10:18:17;5.80;;;1.93;;
15655;SDS011;7928;43.614;1.456;2023-05-16T10:20:47;1.70;;;1.40;;
15655;SDS011;7928;43.614;1.456;2023-05-16T10:23:17;2.10;;;1.40;;
15655;SDS011;7928;43.614;1.456;2023-05-16T10:25:46;5.13;;;1.83;;
15655;SDS011;7928;43.614;1.456;2023-05-16T10:28:14;3.67;;;1.17;;
15655;SDS011;7928;43.614;1.456;2023-05-16T10:30:42;3.60;;;1.50;;
15655;SDS011;7928;43.614;1.456;2023-05-16T10:33:12;3.37;;;2.10;;
15655;SDS011;7928;43.614;1.456;2023-05-16T10:35:41;3.63;;;1.97;;
15655;SDS011;7928;43.614;1.456;2023-05-16T10:38:11;2.17;;;1.40;;
15655;SDS011;7928;43.614;1.456;2023-05-16T10:40:40;14.27;;;2.00;;
15655;SDS011;7928;43.614;1.456;2023-05-16T10:43:08;6.83;;;1.70;;
15655;SDS011;7928;43.614;1.456;2023-05-16T10:45:38;3.93;;;1.73;;
15655;SDS011;7928;43.614;1.456;2023-05-16T10:48:06;2.27;;;1.60;;
15655;SDS011;7928;43.614;1.456;2023-05-16T10:50:39;2.20;;;1.50;;
15655;SDS011;7928;43.614;1.456;2023-05-16T10:53:10;8.03;;;2.13;;
15655;SDS011;7928;43.614;1.456;2023-05-16T10:55:47;3.27;;;1.57;;
15655;SDS011;7928;43.614;1.456;2023-05-16T10:58:40;9.60;;;1.97;;
15655;SDS011;7928;43.614;1.456;2023-05-16T11:01:18;6.00;;;1.70;;
15655;SDS011;7928;43.614;1.456;2023-05-16T11:03:59;9.33;;;1.70;;
15655;SDS011;7928;43.614;1.456;2023-05-16T11:06:43;2.50;;;1.07;;
15655;SDS011;7928;43.614;1.456;2023-05-16T11:09:22;1.23;;;1.00;;
15655;SDS011;7928;43.614;1.456;2023-05-16T11:11:58;3.40;;;1.60;;
15655;SDS011;7928;43.614;1.456;2023-05-16T11:14:27;2.00;;;1.27;;
15655;SDS011;7928;43.614;1.456;2023-05-16T11:17:01;2.80;;;1.53;;
15655;SDS011;7928;43.614;1.456;2023-05-16T11:19:32;3.07;;;1.43;;
15655;SDS011;7928;43.614;1.456;2023-05-16T11:22:05;2.03;;;1.27;;
15655;SDS011;7928;43.614;1.456;2023-05-16T11:24:54;5.50;;;1.10;;
15655;SDS011;7928;43.614;1.456;2023-05-16T11:27:26;1.97;;;1.10;;
15655;SDS011;7928;43.614;1.456;2023-05-16T11:29:57;1.97;;;1.10;;
15655;SDS011;7928;43.614;1.456;2023-05-16T11:32:25;4.55;;;1.65;;
15655;SDS011;7928;43.614;1.456;2023-05-16T11:34:52;8.00;;;1.50;;
15655;SDS011;7928;43.614;1.456;2023-05-16T11:37:21;2.88;;;1.00;;
15655;SDS011;7928;43.614;1.456;2023-05-16T11:39:48;7.20;;;1.10;;
15655;SDS011;7928;43.614;1.456;2023-05-16T11:42:15;5.45;;;1.20;;
15655;SDS011;7928;43.614;1.456;2023-05-16T11:44:43;5.23;;;1.00;;
15655;SDS011;7928;43.614;1.456;2023-05-16T11:47:10;2.80;;;1.10;;
15655;SDS011;7928;43.614;1.456;2023-05-16T11:49:37;2.63;;;0.75;;
15655;SDS011;7928;43.614;1.456;2023-05-16T11:52:06;1.60;;;0.73;;
15655;SDS011;7928;43.614;1.456;2023-05-16T11:54:36;6.45;;;1.10;;
15655;SDS011;7928;43.614;1.456;2023-05-16T11:57:03;4.68;;;1.58;;
15655;SDS011;7928;43.614;1.456;2023-05-16T11:59:31;4.15;;;1.08;;
15655;SDS011;7928;43.614;1.456;2023-05-16T12:01:58;9.15;;;1.88;;
15655;SDS011;7928;43.614;1.456;2023-05-16T12:04:29;6.35;;;1.63;;
15655;SDS011;7928;43.614;1.456;2023-05-16T12:06:57;5.72;;;0.93;;
15655;SDS011;7928;43.614;1.456;2023-05-16T12:09:26;4.88;;;1.15;;
15655;SDS011;7928;43.614;1.456;2023-05-16T12:11:54;2.40;;;1.10;;
15655;SDS011;7928;43.614;1.456;2023-05-16T12:14:22;5.18;;;1.50;;
15655;SDS011;7928;43.614;1.456;2023-05-16T12:16:50;3.92;;;1.13;;
15655;SDS011;7928;43.614;1.456;2023-05-16T12:19:18;8.48;;;1.33;;
15655;SDS011;7928;43.614;1.456;2023-05-16T12:21:46;10.95;;;1.38;;
15655;SDS011;7928;43.614;1.456;2023-05-16T12:24:13;2.25;;;1.23;;
15655;SDS011;7928;43.614;1.456;2023-05-16T12:26:41;8.20;;;1.10;;
15655;SDS011;7928;43.614;1.456;2023-05-16T12:29:10;1.60;;;0.73;;
15655;SDS011;7928;43.614;1.456;2023-05-16T12:31:37;4.93;;;0.98;;
15655;SDS011;7928;43.614;1.456;2023-05-16T12:34:15;4.90;;;1.20;;
15655;SDS011;7928;43.614;1.456;2023-05-16T12:36:43;3.00;;;1.23;;
15655;SDS011;7928;43.614;1.456;2023-05-16T12:39:10;6.38;;;1.23;;
15655;SDS011;7928;43.614;1.456;2023-05-16T12:41:40;6.50;;;1.23;;
15655;SDS011;7928;43.614;1.456;2023-05-16T12:44:12;16.48;;;2.20;;
15655;SDS011;7928;43.614;1.456;2023-05-16T12:46:41;4.22;;;1.40;;
15655;SDS011;7928;43.614;1.456;2023-05-16T12:49:10;6.47;;;1.40;;
15655;SDS011;7928;43.614;1.456;2023-05-16T12:51:37;1.95;;;1.10;;
15655;SDS011;7928;43.614;1.456;2023-05-16T12:54:08;7.97;;;1.83;;
15655;SDS011;7928;43.614;1.456;2023-05-16T12:56:37;3.67;;;1.23;;
15655;SDS011;7928;43.614;1.456;2023-05-16T12:59:04;17.05;;;2.28;;
15655;SDS011;7928;43.614;1.456;2023-05-16T13:01:33;11.10;;;2.25;;
15655;SDS011;7928;43.614;1.456;2023-05-16T13:04:00;3.22;;;1.10;;
15655;SDS011;7928;43.614;1.456;2023-05-16T13:06:28;3.83;;;1.20;;
15655;SDS011;7928;43.614;1.456;2023-05-16T13:08:55;4.28;;;1.30;;
15655;SDS011;7928;43.614;1.456;2023-05-16T13:11:23;3.08;;;1.02;;
15655;SDS011;7928;43.614;1.456;2023-05-16T13:13:50;13.82;;;2.33;;
15655;SDS011;7928;43.614;1.456;2023-05-16T13:16:17;2.10;;;1.10;;
15655;SDS011;7928;43.614;1.456;2023-05-16T13:18:45;3.20;;;1.60;;
15655;SDS011;7928;43.614;1.456;2023-05-16T13:21:12;4.93;;;1.95;;
15655;SDS011;7928;43.614;1.456;2023-05-16T13:23:40;3.65;;;1.20;;
15655;SDS011;7928;43.614;1.456;2023-05-16T13:26:07;7.78;;;1.85;;
15655;SDS011;7928;43.614;1.456;2023-05-16T13:28:34;4.95;;;1.20;;
15655;SDS011;7928;43.614;1.456;2023-05-16T13:31:01;2.85;;;1.58;;
15655;SDS011;7928;43.614;1.456;2023-05-16T13:33:28;9.65;;;1.80;;
15655;SDS011;7928;43.614;1.456;2023-05-16T13:35:57;6.43;;;1.30;;
15655;SDS011;7928;43.614;1.456;2023-05-16T13:38:24;3.15;;;1.35;;
15655;SDS011;7928;43.614;1.456;2023-05-16T13:40:51;4.15;;;1.30;;
15655;SDS011;7928;43.614;1.456;2023-05-16T13:43:18;3.08;;;1.15;;
15655;SDS011;7928;43.614;1.456;2023-05-16T13:45:45;11.65;;;2.25;;
15655;SDS011;7928;43.614;1.456;2023-05-16T13:48:12;4.40;;;1.38;;
15655;SDS011;7928;43.614;1.456;2023-05-16T13:50:39;5.15;;;1.20;;
15655;SDS011;7928;43.614;1.456;2023-05-16T13:53:08;5.57;;;1.50;;
15655;SDS011;7928;43.614;1.456;2023-05-16T13:55:35;11.68;;;2.10;;
15655;SDS011;7928;43.614;1.456;2023-05-16T13:58:02;2.78;;;1.15;;
15655;SDS011;7928;43.614;1.456;2023-05-16T14:00:29;4.53;;;2.22;;
15655;SDS011;7928;43.614;1.456;2023-05-16T14:02:56;8.05;;;1.88;;
15655;SDS011;7928;43.614;1.456;2023-05-16T14:05:23;5.75;;;1.30;;
15655;SDS011;7928;43.614;1.456;2023-05-16T14:07:50;5.07;;;1.75;;
15655;SDS011;7928;43.614;1.456;2023-05-16T14:10:19;14.23;;;2.22;;
15655;SDS011;7928;43.614;1.456;2023-05-16T14:12:46;6.10;;;1.48;;
15655;SDS011;7928;43.614;1.456;2023-05-16T14:15:13;4.60;;;1.50;;
15655;SDS011;7928;43.614;1.456;2023-05-16T14:17:40;7.18;;;1.33;;
15655;SDS011;7928;43.614;1.456;2023-05-16T14:20:07;4.55;;;1.67;;
15655;SDS011;7928;43.614;1.456;2023-05-16T14:22:35;2.05;;;0.95;;
15655;SDS011;7928;43.614;1.456;2023-05-16T14:25:02;2.20;;;1.00;;
15655;SDS011;7928;43.614;1.456;2023-05-16T14:27:31;3.92;;;1.58;;
15655;SDS011;7928;43.614;1.456;2023-05-16T14:29:58;6.97;;;1.30;;
15655;SDS011;7928;43.614;1.456;2023-05-16T14:32:26;5.80;;;1.85;;
15655;SDS011;7928;43.614;1.456;2023-05-16T14:34:53;3.45;;;1.20;;
15655;SDS011;7928;43.614;1.456;2023-05-16T14:37:20;3.70;;;1.42;;
15655;SDS011;7928;43.614;1.456;2023-05-16T14:39:47;4.70;;;1.80;;
15655;SDS011;7928;43.614;1.456;2023-05-16T14:42:15;5.05;;;1.73;;
15655;SDS011;7928;43.614;1.456;2023-05-16T14:44:44;3.95;;;1.42;;
15655;SDS011;7928;43.614;1.456;2023-05-16T14:47:11;3.80;;;1.48;;
15655;SDS011;7928;43.614;1.456;2023-05-16T14:49:38;8.75;;;2.15;;
15655;SDS011;7928;43.614;1.456;2023-05-16T14:52:05;4.10;;;1.10;;
15655;SDS011;7928;43.614;1.456;2023-05-16T14:54:32;5.90;;;1.60;;
15655;SDS011;7928;43.614;1.456;2023-05-16T14:57:00;4.80;;;1.40;;
15655;SDS011;7928;43.614;1.456;2023-05-16T14:59:29;8.77;;;1.60;;
15655;SDS011;7928;43.614;1.456;2023-05-16T15:01:57;2.15;;;1.15;;
15655;SDS011;7928;43.614;1.456;2023-05-16T15:04:25;2.80;;;1.30;;
15655;SDS011;7928;43.614;1.456;2023-05-16T15:06:53;7.18;;;1.42;;